createdAt,value
2022-12-03T00:00:55.239Z,6.64
2022-12-03T00:04:01.600Z,6.61
2022-12-03T00:07:10.269Z,6.64
2022-12-03T00:10:18.045Z,6.76
2022-12-03T00:13:26.542Z,6.66
2022-12-03T00:16:33.537Z,6.70
2022-12-03T00:19:40.612Z,6.78
2022-12-03T00:22:47.368Z,6.78
2022-12-03T00:25:53.957Z,6.78
2022-12-03T00:29:01.966Z,6.70
2022-12-03T00:32:09.625Z,6.77
2022-12-03T00:35:16.199Z,6.80
2022-12-03T00:38:22.882Z,6.79
2022-12-03T00:41:29.380Z,6.77
2022-12-03T00:44:36.118Z,6.88
2022-12-03T00:47:42.976Z,6.87
2022-12-03T00:50:50.317Z,6.93
2022-12-03T00:53:58.026Z,6.95
2022-12-03T00:57:05.654Z,6.90
2022-12-03T01:00:14.934Z,6.94
2022-12-03T01:03:21.597Z,7.03
2022-12-03T01:06:29.007Z,7.08
2022-12-03T01:09:35.398Z,7.00
2022-12-03T01:12:42.158Z,7.04
2022-12-03T01:15:51.959Z,7.03
2022-12-03T01:18:57.750Z,7.00
2022-12-03T01:22:04.169Z,7.06
2022-12-03T01:25:12.221Z,7.10
2022-12-03T01:28:19.147Z,7.06
2022-12-03T01:31:43.976Z,6.98
2022-12-03T01:34:53.602Z,7.04
2022-12-03T01:37:59.611Z,7.10
2022-12-03T01:41:11.547Z,7.19
2022-12-03T01:44:27.490Z,7.25
2022-12-03T01:47:38.974Z,7.25
2022-12-03T01:50:46.181Z,7.19
2022-12-03T01:53:52.350Z,7.21
2022-12-03T01:56:59.954Z,7.08
2022-12-03T02:00:08.652Z,7.11
2022-12-03T02:03:26.341Z,7.11
2022-12-03T02:06:33.046Z,7.23
2022-12-03T02:09:40.387Z,7.19
2022-12-03T02:13:04.355Z,7.20
2022-12-03T02:16:12.354Z,7.24
2022-12-03T02:19:27.548Z,7.24
2022-12-03T02:22:49.735Z,7.12
2022-12-03T02:25:56.562Z,7.08
2022-12-03T02:29:03.698Z,7.03
2022-12-03T02:32:10.231Z,7.02
2022-12-03T02:35:21.976Z,7.13
2022-12-03T02:38:30.616Z,7.17
2022-12-03T02:41:55.280Z,7.24
2022-12-03T02:45:13.974Z,7.06
2022-12-03T02:48:26.194Z,7.15
2022-12-03T02:51:34.025Z,7.07
2022-12-03T02:54:40.377Z,7.12
2022-12-03T02:57:49.533Z,7.12
2022-12-03T03:00:57.113Z,7.18
2022-12-03T03:04:04.960Z,7.14
2022-12-03T03:07:11.776Z,7.16
2022-12-03T03:10:22.746Z,7.25
2022-12-03T03:13:32.967Z,7.11
2022-12-03T03:16:38.678Z,7.07
2022-12-03T03:19:45.064Z,7.05
2022-12-03T03:22:50.976Z,7.06
2022-12-03T03:26:02.465Z,7.04
2022-12-03T03:29:08.253Z,7.11
2022-12-03T03:32:15.107Z,7.10
2022-12-03T03:35:22.316Z,7.11
2022-12-03T03:38:31.451Z,7.08
2022-12-03T03:41:40.967Z,7.05
2022-12-03T03:44:49.335Z,7.12
2022-12-03T03:47:56.296Z,7.15
2022-12-03T03:51:09.318Z,7.13
2022-12-03T03:54:16.581Z,7.16
2022-12-03T03:57:22.754Z,7.25
2022-12-03T04:00:29.469Z,7.23
2022-12-03T04:03:36.117Z,7.26
2022-12-03T04:06:43.660Z,7.29
2022-12-03T04:09:50.285Z,7.23
2022-12-03T04:12:56.677Z,7.23
2022-12-03T04:16:04.570Z,7.16
2022-12-03T04:19:11.139Z,7.23
2022-12-03T04:22:35.920Z,7.14
2022-12-03T04:26:01.512Z,7.02
2022-12-03T04:29:09.609Z,7.02
2022-12-03T04:32:34.222Z,7.01
2022-12-03T04:35:44.676Z,7.08
2022-12-03T04:39:01.819Z,7.13
2022-12-03T04:42:09.592Z,6.98
2022-12-03T04:45:17.239Z,7.10
2022-12-03T04:48:24.990Z,7.09
2022-12-03T04:51:31.997Z,7.07
2022-12-03T04:54:39.947Z,7.04
2022-12-03T04:57:46.250Z,7.04
2022-12-03T05:00:53.852Z,7.04
2022-12-03T05:04:00.030Z,7.00
2022-12-03T05:07:07.519Z,7.07
2022-12-03T05:10:14.665Z,7.13
2022-12-03T05:13:20.435Z,7.11
2022-12-03T05:16:28.962Z,6.98
2022-12-03T05:19:55.442Z,7.02
2022-12-03T05:23:01.616Z,6.93
2022-12-03T05:26:08.295Z,6.88
2022-12-03T05:29:15.046Z,7.01
2022-12-03T05:32:21.452Z,7.00
2022-12-03T05:35:27.790Z,7.23
2022-12-03T05:38:34.691Z,7.16
2022-12-03T05:42:16.638Z,7.09
2022-12-03T05:45:31.369Z,7.15
2022-12-03T05:48:38.821Z,7.06
2022-12-03T05:51:46.086Z,7.05
2022-12-03T05:54:53.347Z,7.09
2022-12-03T05:58:00.676Z,7.10
2022-12-03T06:01:08.718Z,7.10
2022-12-03T06:04:15.109Z,6.91
2022-12-03T06:07:22.151Z,6.95
2022-12-03T06:10:29.801Z,6.93
2022-12-03T06:13:36.134Z,6.97
2022-12-03T06:16:42.158Z,6.90
2022-12-03T06:19:48.903Z,6.85
2022-12-03T06:22:54.853Z,6.95
2022-12-03T06:26:00.644Z,6.81
2022-12-03T06:29:06.742Z,6.84
2022-12-03T06:32:12.730Z,6.80
2022-12-03T06:35:18.586Z,6.80
2022-12-03T06:38:25.087Z,6.81
2022-12-03T06:41:31.680Z,6.80
2022-12-03T06:44:38.689Z,6.93
2022-12-03T06:47:45.297Z,6.94
2022-12-03T06:50:53.147Z,7.05
2022-12-03T06:54:00.437Z,6.99
2022-12-03T06:57:07.270Z,6.96
2022-12-03T07:00:13.480Z,7.10
2022-12-03T07:03:19.364Z,7.15
2022-12-03T07:06:25.839Z,7.18
2022-12-03T07:09:32.197Z,7.09
2022-12-03T07:12:38.992Z,7.07
2022-12-03T07:15:45.230Z,7.13
2022-12-03T07:18:52.204Z,7.18
2022-12-03T07:22:01.530Z,7.18
2022-12-03T07:25:09.161Z,7.14
2022-12-03T07:28:15.863Z,7.21
2022-12-03T07:31:22.764Z,7.17
2022-12-03T07:34:30.152Z,7.13
2022-12-03T07:37:36.053Z,7.16
2022-12-03T07:40:41.789Z,7.25
2022-12-03T07:43:48.899Z,7.36
2022-12-03T07:46:55.562Z,7.18
2022-12-03T07:50:01.292Z,7.37
2022-12-03T07:53:07.353Z,7.33
2022-12-03T07:58:02.228Z,7.34
2022-12-03T08:01:08.426Z,7.30
2022-12-03T08:04:15.241Z,7.32
2022-12-03T08:07:20.942Z,7.32
2022-12-03T08:10:26.990Z,7.43
2022-12-03T08:13:35.441Z,7.45
2022-12-03T08:16:42.936Z,7.51
2022-12-03T08:19:48.800Z,7.48
2022-12-03T08:22:56.226Z,7.49
2022-12-03T08:26:02.565Z,7.49
2022-12-03T08:29:13.600Z,7.48
2022-12-03T08:32:19.737Z,7.55
2022-12-03T08:35:31.121Z,7.64
2022-12-03T08:38:36.986Z,7.59
2022-12-03T08:42:01.452Z,7.67
2022-12-03T08:45:29.528Z,7.66
2022-12-03T08:48:39.256Z,7.69
2022-12-03T08:51:46.764Z,7.76
2022-12-03T08:54:55.597Z,7.84
2022-12-03T08:58:07.240Z,7.69
2022-12-03T09:01:12.738Z,7.86
2022-12-03T09:04:32.411Z,7.89
2022-12-03T09:07:37.874Z,7.87
2022-12-03T09:10:43.905Z,7.89
2022-12-03T09:13:50.511Z,7.90
2022-12-03T09:16:56.889Z,7.89
2022-12-03T09:20:02.862Z,7.96
2022-12-03T09:23:08.893Z,8.05
2022-12-03T09:26:14.313Z,8.32
2022-12-03T09:29:20.565Z,8.02
2022-12-03T09:32:27.297Z,7.97
2022-12-03T09:35:32.738Z,8.00
2022-12-03T09:38:41.926Z,8.03
2022-12-03T09:41:51.870Z,7.93
2022-12-03T09:44:57.790Z,7.95
2022-12-03T09:48:06.571Z,8.03
2022-12-03T09:51:12.678Z,8.04
2022-12-03T09:54:25.046Z,8.31
2022-12-03T09:57:31.814Z,8.26
2022-12-03T10:00:37.894Z,8.28
2022-12-03T10:03:53.632Z,8.27
2022-12-03T10:06:59.913Z,8.34
2022-12-03T10:10:08.229Z,8.32
2022-12-03T10:13:25.597Z,8.29
2022-12-03T10:16:32.373Z,8.33
2022-12-03T10:19:40.032Z,8.38
2022-12-03T10:23:04.516Z,8.33
2022-12-03T10:26:11.275Z,8.35
2022-12-03T10:29:25.802Z,8.45
2022-12-03T10:32:43.238Z,8.44
2022-12-03T10:35:48.973Z,8.46
2022-12-03T10:39:24.572Z,8.50
2022-12-03T10:42:34.256Z,8.43
2022-12-03T10:45:41.563Z,8.49
2022-12-03T10:49:16.227Z,8.46
2022-12-03T10:52:43.781Z,8.42
2022-12-03T10:55:52.648Z,8.40
2022-12-03T10:59:00.708Z,8.43
2022-12-03T11:02:23.246Z,8.56
2022-12-03T11:05:31.120Z,8.60
2022-12-03T11:08:38.558Z,8.62
2022-12-03T11:11:46.855Z,8.70
2022-12-03T11:14:57.228Z,8.72
2022-12-03T11:18:03.810Z,8.63
2022-12-03T11:21:16.136Z,8.73
2022-12-03T11:24:23.822Z,8.71
2022-12-03T11:27:30.028Z,8.88
2022-12-03T11:30:51.821Z,8.87
2022-12-03T11:34:35.234Z,8.87
2022-12-03T11:37:41.804Z,8.91
2022-12-03T11:41:07.974Z,8.82
2022-12-03T11:44:32.812Z,8.93
2022-12-03T11:48:01.715Z,8.96
2022-12-03T11:51:17.041Z,8.99
2022-12-03T11:54:25.050Z,8.97
2022-12-03T11:57:37.658Z,9.04
2022-12-03T12:01:10.248Z,9.05
2022-12-03T12:04:34.319Z,9.03
2022-12-03T12:07:43.453Z,9.02
2022-12-03T12:10:53.280Z,8.95
2022-12-03T12:14:13.045Z,8.97
2022-12-03T12:17:35.979Z,8.95
2022-12-03T12:20:43.028Z,8.96
2022-12-03T12:23:49.152Z,8.79
2022-12-03T12:27:20.023Z,8.76
2022-12-03T12:30:28.584Z,8.77
2022-12-03T12:33:35.869Z,8.78
2022-12-03T12:36:42.417Z,8.79
2022-12-03T12:39:49.552Z,8.80
2022-12-03T12:43:27.278Z,8.77
2022-12-03T12:46:50.433Z,8.74
2022-12-03T12:49:58.548Z,8.74
2022-12-03T12:53:20.290Z,8.72
2022-12-03T12:56:30.756Z,8.70
2022-12-03T12:59:36.482Z,8.62
2022-12-03T13:03:02.741Z,8.60
2022-12-03T13:06:15.935Z,8.50
2022-12-03T13:09:26.353Z,8.47
2022-12-03T13:12:32.076Z,8.50
2022-12-03T13:15:50.782Z,8.51
2022-12-03T13:19:01.625Z,8.51
2022-12-03T13:22:20.326Z,8.58
2022-12-03T13:25:59.404Z,8.58
2022-12-03T13:29:15.044Z,8.63
2022-12-03T13:32:23.914Z,8.62
2022-12-03T13:35:32.551Z,8.59
2022-12-03T13:38:38.261Z,8.61
2022-12-03T13:42:02.374Z,8.60
2022-12-03T13:45:13.973Z,8.66
2022-12-03T13:48:29.306Z,8.65
2022-12-03T13:51:44.648Z,8.65
2022-12-03T13:54:56.346Z,8.65
2022-12-03T13:58:02.016Z,8.67
2022-12-03T14:01:08.116Z,8.69
2022-12-03T14:04:13.875Z,8.63
2022-12-03T14:07:19.566Z,8.68
2022-12-03T14:10:25.052Z,8.72
2022-12-03T14:13:31.182Z,8.68
2022-12-03T14:16:37.353Z,8.62
2022-12-03T14:19:43.791Z,8.65
2022-12-03T14:22:49.590Z,8.62
2022-12-03T14:25:55.644Z,8.62
2022-12-03T14:29:05.845Z,8.57
2022-12-03T14:32:14.302Z,8.52
2022-12-03T14:35:20.211Z,8.47
2022-12-03T14:38:25.382Z,8.51
2022-12-03T14:41:49.204Z,8.45
2022-12-03T14:44:54.896Z,8.45
2022-12-03T14:48:00.684Z,8.48
2022-12-03T14:51:06.357Z,8.50
2022-12-03T14:54:12.475Z,8.39
2022-12-03T14:57:18.113Z,8.44
2022-12-03T15:00:24.455Z,8.51
2022-12-03T15:03:30.286Z,8.50
2022-12-03T15:06:35.885Z,8.49
2022-12-03T15:09:41.603Z,8.54
2022-12-03T15:12:47.661Z,8.53
2022-12-03T15:15:53.956Z,8.46
2022-12-03T15:18:59.438Z,8.42
2022-12-03T15:22:04.973Z,8.38
2022-12-03T15:25:11.310Z,8.42
2022-12-03T15:28:26.566Z,8.47
2022-12-03T15:31:56.793Z,8.53
2022-12-03T15:35:04.905Z,8.44
2022-12-03T15:38:12.072Z,8.45
2022-12-03T15:41:30.146Z,8.49
2022-12-03T15:44:36.048Z,8.47
2022-12-03T15:47:42.284Z,8.55
2022-12-03T15:50:48.509Z,8.52
2022-12-03T15:54:07.793Z,8.48
2022-12-03T15:57:14.076Z,8.39
2022-12-03T16:00:20.008Z,8.36
2022-12-03T16:03:25.291Z,8.36
2022-12-03T16:06:33.479Z,8.36
2022-12-03T16:09:39.380Z,8.38
2022-12-03T16:12:45.095Z,8.34
2022-12-03T16:15:51.161Z,8.44
2022-12-03T16:18:56.958Z,8.43
2022-12-03T16:22:30.392Z,8.38
2022-12-03T16:25:41.966Z,8.30
2022-12-03T16:28:50.564Z,8.24
2022-12-03T16:31:56.282Z,8.28
2022-12-03T16:35:02.046Z,8.26
2022-12-03T16:38:07.124Z,8.31
2022-12-03T16:41:12.390Z,8.33
2022-12-03T16:44:32.172Z,8.38
2022-12-03T16:47:37.753Z,8.32
2022-12-03T16:50:43.500Z,8.41
2022-12-03T16:53:49.519Z,8.39
2022-12-03T16:57:05.534Z,8.38
2022-12-03T17:00:13.541Z,8.45
2022-12-03T17:03:19.556Z,8.37
2022-12-03T17:06:25.118Z,8.35
2022-12-03T17:09:30.553Z,8.38
2022-12-03T17:13:07.585Z,8.34
2022-12-03T17:16:05.553Z,8.38
2022-12-03T17:19:11.426Z,8.41
2022-12-03T17:22:17.455Z,8.44
2022-12-03T17:25:23.750Z,8.40
2022-12-03T17:28:29.621Z,8.48
2022-12-03T17:31:41.457Z,8.45
2022-12-03T17:34:47.944Z,8.45
2022-12-03T17:37:53.612Z,8.46
2022-12-03T17:40:59.946Z,8.45
2022-12-03T17:44:10.727Z,8.41
2022-12-03T17:47:17.944Z,8.41
2022-12-03T17:50:24.284Z,8.45
2022-12-03T17:53:34.288Z,8.46
2022-12-03T17:56:43.838Z,8.41
2022-12-03T17:59:49.409Z,8.40
2022-12-03T18:02:55.690Z,8.42
2022-12-03T18:06:03.001Z,8.37
2022-12-03T18:09:08.670Z,8.40
2022-12-03T18:12:14.547Z,8.43
2022-12-03T18:15:27.045Z,8.46
2022-12-03T18:18:35.283Z,8.43
2022-12-03T18:21:41.257Z,8.49
2022-12-03T18:24:51.587Z,8.44
2022-12-03T18:28:03.429Z,8.39
2022-12-03T18:31:19.468Z,8.42
2022-12-03T18:34:25.909Z,8.49
2022-12-03T18:37:33.484Z,8.49
2022-12-03T18:40:40.913Z,8.48
2022-12-03T18:43:47.192Z,8.49
2022-12-03T18:46:54.461Z,8.48
2022-12-03T18:50:15.350Z,8.38
2022-12-03T18:53:27.476Z,8.39
2022-12-03T18:56:40.606Z,8.34
2022-12-03T18:59:58.180Z,8.37
2022-12-03T19:03:12.678Z,8.36
2022-12-03T19:06:23.837Z,8.38
2022-12-03T19:09:59.265Z,8.41
2022-12-03T19:13:09.914Z,8.45
2022-12-03T19:16:52.478Z,8.41
2022-12-03T19:20:36.418Z,8.48
2022-12-03T19:24:16.116Z,8.41
2022-12-03T19:27:21.062Z,8.53
2022-12-03T19:30:31.783Z,8.58
2022-12-03T19:33:43.550Z,8.57
2022-12-03T19:36:51.379Z,8.57
2022-12-03T19:40:12.181Z,8.54
2022-12-03T19:43:19.132Z,8.61
2022-12-03T19:46:31.542Z,8.63
2022-12-03T19:49:40.578Z,8.59
2022-12-03T19:52:53.062Z,8.61
2022-12-03T19:56:10.876Z,8.68
2022-12-03T19:59:19.922Z,8.65
2022-12-03T20:02:32.641Z,8.65
2022-12-03T20:06:07.796Z,8.61
2022-12-03T20:09:19.001Z,8.66
2022-12-03T20:12:29.720Z,8.61
2022-12-03T20:15:40.569Z,8.60
2022-12-03T20:18:52.307Z,8.57
2022-12-03T20:22:05.111Z,8.54
2022-12-03T20:25:23.049Z,8.50
2022-12-03T20:28:29.578Z,8.46
2022-12-03T20:31:35.661Z,8.49
2022-12-03T20:34:44.833Z,8.49
2022-12-03T20:37:55.618Z,8.43
2022-12-03T20:41:15.935Z,8.43
2022-12-03T20:44:23.966Z,8.40
2022-12-03T20:47:37.584Z,8.36
2022-12-03T20:50:47.425Z,8.34
2022-12-03T20:54:10.877Z,8.31
2022-12-03T20:57:27.665Z,8.35
2022-12-03T21:00:36.894Z,8.25
2022-12-03T21:03:47.102Z,8.33
2022-12-03T21:06:54.907Z,8.27
2022-12-03T21:10:05.537Z,8.32
2022-12-03T21:13:22.165Z,8.30
2022-12-03T21:17:10.441Z,8.34
2022-12-03T21:20:22.665Z,8.35
2022-12-03T21:23:37.739Z,8.39
2022-12-03T21:26:45.731Z,8.41
2022-12-03T21:30:12.020Z,8.44
2022-12-03T21:33:18.484Z,8.45
2022-12-03T21:36:41.499Z,8.49
2022-12-03T21:39:51.213Z,8.47
2022-12-03T21:43:08.990Z,8.47
